Time;durP1;ratioP1;P1;durP2;ratioP2;P2;SDS_P1;SDS_P2;PMS_P1;PMS_P2;Temp;Humidity;BMP_temperature;BMP_pressure;BME280_temperature;BME280_humidity;BME280_pressure;Samples;Min_cycle;Max_cycle;Signal;HPM_P1;HPM_P2
2024/02/18 00:00:50;;;;;;;33.45;20.50;;;;;;;8.72;100.00;101624.63;5091802;28;20044;-49
2024/02/18 00:03:18;;;;;;;31.38;18.70;;;;;;;8.78;100.00;101624.41;5091442;28;20525;-45
2024/02/18 00:05:47;;;;;;;31.33;18.95;;;;;;;8.73;100.00;101623.72;5091507;28;20161;-46
2024/02/18 00:08:16;;;;;;;31.38;19.77;;;;;;;8.63;100.00;101631.09;5091536;28;20079;-48
2024/02/18 00:10:44;;;;;;;32.67;20.35;;;;;;;8.60;100.00;101629.41;5090276;28;20048;-47
2024/02/18 00:13:12;;;;;;;31.67;19.85;;;;;;;8.76;100.00;101626.25;5091582;28;20044;-47
2024/02/18 00:15:42;;;;;;;32.25;20.75;;;;;;;8.74;100.00;101628.97;5091582;28;20109;-48
2024/02/18 00:18:11;;;;;;;35.15;20.83;;;;;;;8.51;100.00;101627.03;5091487;28;20051;-49
2024/02/18 00:20:39;;;;;;;33.33;20.92;;;;;;;8.54;100.00;101618.94;5091468;28;20338;-47
2024/02/18 00:23:07;;;;;;;33.35;21.40;;;;;;;8.39;100.00;101622.03;5091158;28;20048;-49
2024/02/18 00:25:36;;;;;;;34.95;22.15;;;;;;;8.37;100.00;101628.34;5090911;28;20409;-46
2024/02/18 00:28:05;;;;;;;35.05;21.92;;;;;;;8.14;100.00;101621.88;5090838;28;20094;-48
2024/02/18 00:30:34;;;;;;;38.80;23.35;;;;;;;8.13;100.00;101635.19;5091239;28;20048;-47
2024/02/18 00:33:04;;;;;;;37.40;22.95;;;;;;;8.09;100.00;101630.88;5091111;28;20138;-48
2024/02/18 00:35:33;;;;;;;37.70;21.58;;;;;;;8.17;100.00;101636.84;5090940;28;20083;-45
2024/02/18 00:38:01;;;;;;;34.60;22.10;;;;;;;8.33;100.00;101623.09;5090612;28;20147;-49
2024/02/18 00:40:29;;;;;;;35.50;22.25;;;;;;;8.19;100.00;101635.00;5090991;28;20047;-47
2024/02/18 00:42:58;;;;;;;34.92;22.02;;;;;;;8.30;100.00;101627.63;5090737;28;20105;-47
2024/02/18 00:45:26;;;;;;;34.95;22.15;;;;;;;8.27;100.00;101627.69;5090844;28;20046;-47
2024/02/18 00:47:54;;;;;;;33.65;20.85;;;;;;;8.25;100.00;101640.16;5090767;28;20040;-50
2024/02/18 00:50:24;;;;;;;34.05;20.58;;;;;;;8.19;100.00;101640.31;5090646;28;20433;-50
2024/02/18 00:52:52;;;;;;;34.75;20.48;;;;;;;8.28;100.00;101637.41;5091159;28;20056;-46
2024/02/18 00:55:21;;;;;;;31.92;20.40;;;;;;;8.19;100.00;101640.31;5090950;28;20098;-48
2024/02/18 00:57:49;;;;;;;32.13;19.70;;;;;;;8.22;100.00;101640.25;5090865;28;20093;-45
2024/02/18 01:00:18;;;;;;;30.80;19.40;;;;;;;8.27;100.00;101635.66;5091223;28;20040;-47
2024/02/18 01:02:47;;;;;;;31.25;18.90;;;;;;;8.34;100.00;101631.94;5091058;28;20089;-48
2024/02/18 01:05:15;;;;;;;32.55;19.50;;;;;;;8.46;100.00;101630.72;5090491;28;20109;-46
2024/02/18 01:07:45;;;;;;;29.77;18.88;;;;;;;8.45;100.00;101635.16;5090906;28;20040;-47
2024/02/18 01:10:13;;;;;;;29.13;18.33;;;;;;;8.38;100.00;101638.03;5090827;28;20036;-47
2024/02/18 01:12:42;;;;;;;29.92;18.33;;;;;;;8.44;100.00;101641.41;5090663;28;20132;-48
2024/02/18 01:15:10;;;;;;;29.60;17.98;;;;;;;8.38;100.00;101641.56;5090601;28;20170;-48
2024/02/18 01:17:39;;;;;;;33.22;19.05;;;;;;;8.45;100.00;101648.47;5090381;28;20512;-48
2024/02/18 01:20:09;;;;;;;30.08;18.17;;;;;;;8.37;100.00;101641.63;5090772;28;20044;-47
2024/02/18 01:22:37;;;;;;;28.25;18.08;;;;;;;8.26;100.00;101644.56;5092915;28;20209;-49
2024/02/18 01:25:09;;;;;;;29.25;18.20;;;;;;;8.28;100.00;101648.03;5094186;28;20055;-46
2024/02/18 01:27:40;;;;;;;31.75;17.35;;;;;;;8.38;100.00;101646.03;5094242;28;20498;-48
2024/02/18 01:30:09;;;;;;;28.63;17.58;;;;;;;8.44;100.00;101644.06;5094199;28;20528;-46
2024/02/18 01:32:37;;;;;;;26.83;17.38;;;;;;;8.45;100.00;101645.81;5094266;28;20430;-48
2024/02/18 01:35:07;;;;;;;28.75;17.83;;;;;;;8.43;100.00;101646.78;5097342;28;20040;-47
2024/02/18 01:37:35;;;;;;;28.42;17.92;;;;;;;8.33;100.00;101649.66;5114665;28;20074;-48
2024/02/18 01:40:06;;;;;;;30.33;17.60;;;;;;;8.32;100.00;101649.72;5114418;28;20044;-48
2024/02/18 01:42:38;;;;;;;31.10;17.67;;;;;;;8.39;100.00;101650.41;5114175;28;20051;-48
2024/02/18 01:45:08;;;;;;;28.95;17.55;;;;;;;8.22;100.00;101642.91;5114255;28;20459;-48
2024/02/18 01:47:39;;;;;;;28.38;17.75;;;;;;;8.17;100.00;101652.78;5114472;28;20079;-50
2024/02/18 01:50:09;;;;;;;28.88;18.42;;;;;;;8.13;100.00;101656.47;5114225;28;20066;-46
2024/02/18 01:52:38;;;;;;;27.50;17.40;;;;;;;8.15;100.00;101644.88;5114566;28;20104;-48
2024/02/18 01:55:07;;;;;;;29.55;17.67;;;;;;;8.13;100.00;101646.69;5114132;27;20361;-48
2024/02/18 01:57:37;;;;;;;28.70;18.10;;;;;;;8.22;100.00;101649.09;5114259;28;20515;-47
2024/02/18 02:00:12;;;;;;;31.42;17.23;;;;;;;8.28;100.00;101653.34;5113989;28;20051;-46
2024/02/18 02:02:42;;;;;;;29.00;17.77;;;;;;;8.25;100.00;101653.44;5114020;28;20475;-47
2024/02/18 02:05:13;;;;;;;29.25;17.92;;;;;;;8.18;100.00;101660.72;5113994;28;20097;-45
2024/02/18 02:07:43;;;;;;;29.20;17.33;;;;;;;8.02;100.00;101662.94;5114049;28;20044;-47
2024/02/18 02:10:14;;;;;;;28.55;17.23;;;;;;;8.07;100.00;101661.94;5114032;28;20125;-48
2024/02/18 02:12:43;;;;;;;25.80;16.70;;;;;;;8.19;100.00;101661.59;5114264;28;20044;-48
2024/02/18 02:15:13;;;;;;;28.42;17.55;;;;;;;8.29;100.00;101663.94;5113821;28;20047;-46
2024/02/18 02:17:41;;;;;;;28.95;17.42;;;;;;;8.07;100.00;101656.63;5113851;28;20047;-46
2024/02/18 02:20:10;;;;;;;27.00;17.08;;;;;;;8.18;100.00;101654.53;5113853;28;20138;-47
2024/02/18 02:22:39;;;;;;;26.55;16.52;;;;;;;8.25;100.00;101650.78;5113444;28;20043;-47
2024/02/18 02:25:10;;;;;;;27.08;16.20;;;;;;;8.10;100.00;101656.53;5113798;28;20052;-49
2024/02/18 02:27:42;;;;;;;29.33;16.60;;;;;;;8.13;100.00;101648.50;5113528;28;20056;-49
2024/02/18 02:30:13;;;;;;;30.10;16.45;;;;;;;8.14;100.00;101648.44;5113447;28;20043;-51
2024/02/18 02:32:42;;;;;;;28.88;17.02;;;;;;;8.10;100.00;101651.22;5112919;28;20479;-46
2024/02/18 02:35:10;;;;;;;25.50;15.48;;;;;;;8.15;100.00;101650.19;5112618;28;20573;-48
2024/02/18 02:37:40;;;;;;;26.02;16.05;;;;;;;8.14;100.00;101645.78;5113473;28;20061;-45
2024/02/18 02:40:09;;;;;;;23.50;14.57;;;;;;;8.25;100.00;101650.78;5113127;28;20584;-47
2024/02/18 02:42:37;;;;;;;26.45;16.17;;;;;;;8.28;100.00;101648.91;5112967;28;20556;-47
2024/02/18 02:45:06;;;;;;;23.50;15.23;;;;;;;8.23;100.00;101634.03;5111884;28;20101;-49
2024/02/18 02:47:37;;;;;;;26.20;14.88;;;;;;;8.19;100.00;101645.63;5112975;28;20090;-48
2024/02/18 02:50:05;;;;;;;23.42;14.18;;;;;;;8.26;100.00;101636.59;5114110;28;20190;-46
2024/02/18 02:52:34;;;;;;;23.00;14.10;;;;;;;8.22;100.00;101648.25;5113092;28;20369;-46
2024/02/18 02:55:02;;;;;;;23.73;14.88;;;;;;;8.26;100.00;101652.53;5112752;28;20044;-48
2024/02/18 02:57:30;;;;;;;22.60;14.55;;;;;;;8.32;100.00;101652.38;5112872;28;20048;-47
2024/02/18 02:59:59;;;;;;;24.38;14.30;;;;;;;8.37;100.00;101661.09;5112693;28;20044;-48
2024/02/18 03:02:27;;;;;;;23.67;14.50;;;;;;;8.21;100.00;101663.31;5112606;28;20533;-50
2024/02/18 03:04:56;;;;;;;23.45;14.57;;;;;;;8.10;100.00;101656.53;5112043;28;20055;-47
2024/02/18 03:07:25;;;;;;;24.80;14.73;;;;;;;8.19;100.00;101666.91;5112328;28;20181;-47
2024/02/18 03:09:53;;;;;;;22.65;14.07;;;;;;;8.20;100.00;101664.22;5112603;28;20059;-47
2024/02/18 03:12:22;;;;;;;21.05;13.68;;;;;;;8.30;100.00;101667.50;5112548;28;20053;-46
2024/02/18 03:14:51;;;;;;;20.25;12.48;;;;;;;8.30;100.00;101672.81;5112409;28;20071;-46
2024/02/18 03:17:20;;;;;;;20.35;13.07;;;;;;;8.36;100.00;101674.44;5112646;28;20048;-49
2024/02/18 03:19:48;;;;;;;24.00;13.95;;;;;;;8.32;100.00;101673.66;5112500;28;20082;-47
2024/02/18 03:22:21;;;;;;;21.48;12.98;;;;;;;8.29;100.00;101674.56;5112207;28;20120;-51
2024/02/18 03:24:49;;;;;;;21.42;14.00;;;;;;;8.34;100.00;101677.13;5112266;28;20058;-46
2024/02/18 03:27:18;;;;;;;22.02;13.73;;;;;;;8.31;100.00;101678.09;5113036;27;20044;-46
2024/02/18 03:29:46;;;;;;;22.60;13.82;;;;;;;8.39;100.00;101688.50;5112944;28;20474;-48
2024/02/18 03:32:15;;;;;;;22.17;13.93;;;;;;;8.48;100.00;101687.38;5113192;28;20390;-44
2024/02/18 03:34:44;;;;;;;20.83;13.40;;;;;;;8.33;100.00;101686.00;5112542;28;20101;-48
2024/02/18 03:37:13;;;;;;;23.88;14.73;;;;;;;8.25;100.00;101680.91;5112271;28;20126;-45
2024/02/18 03:39:42;;;;;;;23.85;14.68;;;;;;;8.33;100.00;101696.66;5112039;28;20100;-47
2024/02/18 03:42:11;;;;;;;23.75;14.40;;;;;;;8.46;100.00;101697.19;5111990;28;20058;-49
2024/02/18 03:44:39;;;;;;;28.00;15.27;;;;;;;8.51;100.00;101692.63;5111813;28;20055;-48
2024/02/18 03:47:08;;;;;;;26.20;15.88;;;;;;;8.48;100.00;101698.88;5111826;28;20048;-46
2024/02/18 03:49:36;;;;;;;24.60;15.15;;;;;;;8.38;100.00;101694.75;5111945;28;20053;-47
2024/02/18 03:52:05;;;;;;;24.33;14.60;;;;;;;8.55;100.00;101702.25;5111708;28;20047;-45
2024/02/18 03:54:34;;;;;;;23.02;14.25;;;;;;;8.50;100.00;101705.06;5111662;28;20092;-49
2024/02/18 03:57:04;;;;;;;24.85;15.25;;;;;;;8.49;100.00;101694.44;5111791;28;20047;-48
2024/02/18 03:59:32;;;;;;;24.08;14.52;;;;;;;8.43;100.00;101698.16;5111632;28;20484;-46
2024/02/18 04:02:00;;;;;;;25.13;14.50;;;;;;;8.43;100.00;101702.63;5111750;28;20055;-45
2024/02/18 04:04:28;;;;;;;23.40;14.75;;;;;;;8.37;100.00;101698.31;5111341;28;20220;-46
2024/02/18 04:06:57;;;;;;;26.08;15.60;;;;;;;8.38;100.00;101700.06;5111400;28;20051;-47
2024/02/18 04:09:27;;;;;;;25.92;15.07;;;;;;;8.39;100.00;101707.13;5111250;28;20043;-47
2024/02/18 04:11:55;;;;;;;26.08;15.00;;;;;;;8.37;100.00;101700.13;5111395;28;20078;-47
2024/02/18 04:14:25;;;;;;;24.92;14.45;;;;;;;8.27;100.00;101705.66;5111390;28;20048;-48
2024/02/18 04:16:54;;;;;;;24.05;14.15;;;;;;;8.27;100.00;101697.69;5111327;27;20097;-48
2024/02/18 04:19:22;;;;;;;23.75;15.15;;;;;;;8.27;100.00;101696.81;5111331;28;20127;-46
2024/02/18 04:21:51;;;;;;;24.88;15.25;;;;;;;8.21;100.00;101699.66;5110976;28;20077;-48
2024/02/18 04:24:19;;;;;;;24.33;15.45;;;;;;;8.16;100.00;101702.44;5110801;28;20047;-47
2024/02/18 04:26:47;;;;;;;23.42;15.35;;;;;;;8.17;100.00;101697.97;5111034;28;20047;-46
2024/02/18 04:29:15;;;;;;;23.00;14.80;;;;;;;8.19;100.00;101704.13;5111338;28;20048;-49
2024/02/18 04:31:45;;;;;;;28.15;16.35;;;;;;;8.14;100.00;101698.06;5111894;28;20138;-46
2024/02/18 04:34:13;;;;;;;25.10;15.55;;;;;;;7.94;100.00;101699.47;5111127;28;20449;-46
2024/02/18 04:36:42;;;;;;;29.45;17.38;;;;;;;8.03;100.00;101693.91;5111529;28;20044;-51
2024/02/18 04:39:11;;;;;;;37.42;21.65;;;;;;;8.02;100.00;101697.50;5110889;28;20093;-44
2024/02/18 04:41:40;;;;;;;27.38;16.58;;;;;;;7.91;100.00;101701.31;5111066;28;20050;-47
2024/02/18 04:44:08;;;;;;;29.40;18.90;;;;;;;7.77;100.00;101696.38;5109588;28;20047;-48
2024/02/18 04:46:36;;;;;;;28.42;17.92;;;;;;;7.79;100.00;101705.16;5111016;28;20120;-49
2024/02/18 04:49:06;;;;;;;27.58;16.52;;;;;;;7.76;100.00;101702.59;5110847;28;20665;-47
2024/02/18 04:51:34;;;;;;;27.42;16.88;;;;;;;7.85;100.00;101705.03;5111127;28;20047;-48
2024/02/18 04:54:02;;;;;;;23.35;15.50;;;;;;;7.71;100.00;101704.50;5111018;28;20047;-48
2024/02/18 04:56:30;;;;;;;24.63;16.30;;;;;;;7.71;100.00;101705.38;5111770;28;20094;-47
2024/02/18 04:58:59;;;;;;;28.80;16.05;;;;;;;7.72;100.00;101709.78;5115111;28;20054;-50
2024/02/18 05:01:27;;;;;;;27.25;15.80;;;;;;;7.77;100.00;101711.44;5114947;28;20048;-46
2024/02/18 05:03:56;;;;;;;24.02;15.25;;;;;;;7.72;100.00;101714.19;5115055;28;20429;-45
2024/02/18 05:06:26;;;;;;;25.13;15.27;;;;;;;7.63;100.00;101706.50;5114858;28;20047;-46
2024/02/18 05:08:54;;;;;;;25.63;14.27;;;;;;;7.51;100.00;101705.00;5114836;28;20055;-50
2024/02/18 05:11:23;;;;;;;26.88;14.75;;;;;;;7.53;100.00;101708.50;5114798;28;20044;-48
2024/02/18 05:13:51;;;;;;;28.05;15.38;;;;;;;7.40;100.00;101702.59;5114896;28;20058;-46
2024/02/18 05:16:19;;;;;;;25.20;15.18;;;;;;;7.43;100.00;101699.88;5114918;28;20056;-48
2024/02/18 05:18:48;;;;;;;26.33;14.70;;;;;;;7.49;100.00;101700.63;5114695;28;20442;-46
2024/02/18 05:21:17;;;;;;;26.85;15.82;;;;;;;7.43;100.00;101699.88;5114753;28;20124;-48
2024/02/18 05:23:48;;;;;;;26.10;15.02;;;;;;;7.35;100.00;101707.16;5114732;28;20072;-48
2024/02/18 05:26:16;;;;;;;24.08;14.70;;;;;;;7.41;100.00;101707.00;5114552;28;20051;-49
2024/02/18 05:28:45;;;;;;;28.58;15.07;;;;;;;7.32;100.00;101701.91;5114401;28;20047;-46
2024/02/18 05:31:22;;;;;;;26.80;15.80;;;;;;;7.24;100.00;101705.63;5114788;28;20048;-49
2024/02/18 05:33:50;;;;;;;25.23;14.95;;;;;;;7.26;100.00;101707.38;5114573;27;20502;-48
2024/02/18 05:36:20;;;;;;;30.73;15.77;;;;;;;7.40;100.00;101713.22;5114515;28;20683;-48
2024/02/18 05:38:50;;;;;;;31.05;15.57;;;;;;;7.38;100.00;101706.22;5114365;28;20066;-47
2024/02/18 05:41:19;;;;;;;36.42;19.00;;;;;;;7.34;100.00;101713.38;5114157;28;20043;-47
2024/02/18 05:43:47;;;;;;;28.02;16.27;;;;;;;7.24;100.00;101711.84;5114334;28;20039;-46
2024/02/18 05:46:16;;;;;;;28.25;15.77;;;;;;;7.30;100.00;101709.03;5114250;28;20048;-46
2024/02/18 05:48:45;;;;;;;26.23;15.82;;;;;;;7.32;100.00;101709.88;5114436;28;20412;-48
2024/02/18 05:51:14;;;;;;;25.08;15.48;;;;;;;7.15;100.00;101717.38;5113990;28;20131;-46
2024/02/18 05:53:42;;;;;;;24.58;14.95;;;;;;;7.21;100.00;101717.22;5114009;28;20447;-48
2024/02/18 05:56:12;;;;;;;22.92;14.30;;;;;;;7.16;100.00;101719.13;5114229;28;20054;-46
2024/02/18 05:58:40;;;;;;;24.02;14.60;;;;;;;7.30;100.00;101722.31;5114134;28;20109;-46
2024/02/18 06:01:08;;;;;;;28.60;16.13;;;;;;;7.35;100.00;101731.06;5114086;28;20120;-46
2024/02/18 06:03:37;;;;;;;25.42;14.20;;;;;;;7.52;100.00;101732.41;5113796;28;20412;-48
2024/02/18 06:06:05;;;;;;;23.80;13.88;;;;;;;7.55;100.00;101737.66;5113812;28;20043;-51
2024/02/18 06:08:34;;;;;;;22.38;13.98;;;;;;;7.61;100.00;101738.38;5114291;28;20048;-48
2024/02/18 06:11:06;;;;;;;22.70;13.30;;;;;;;7.63;100.00;101746.31;5114133;28;20127;-48
2024/02/18 06:13:36;;;;;;;20.77;13.65;;;;;;;7.63;100.00;101743.69;5113824;28;20120;-47
2024/02/18 06:16:05;;;;;;;21.85;14.10;;;;;;;7.53;100.00;101753.66;5113725;28;20047;-46
2024/02/18 06:18:34;;;;;;;23.30;14.02;;;;;;;7.62;100.00;101747.22;5113410;28;20051;-45
2024/02/18 06:21:02;;;;;;;22.40;13.60;;;;;;;7.67;100.00;101746.19;5113678;28;20471;-47
2024/02/18 06:23:31;;;;;;;21.98;14.27;;;;;;;7.59;100.00;101748.16;5113785;28;20112;-48
2024/02/18 06:25:59;;;;;;;21.92;13.07;;;;;;;7.59;100.00;101742.84;5113527;28;20104;-46
2024/02/18 06:28:32;;;;;;;21.85;13.38;;;;;;;7.62;100.00;101750.75;5113405;28;20067;-47
2024/02/18 06:31:03;;;;;;;21.15;14.15;;;;;;;7.51;100.00;101751.91;5113513;28;20524;-46
2024/02/18 06:33:32;;;;;;;21.88;13.13;;;;;;;7.49;100.00;101754.59;5113482;28;20040;-45
2024/02/18 06:36:00;;;;;;;21.40;13.63;;;;;;;7.69;100.00;101749.69;5113607;28;20067;-48
2024/02/18 06:38:29;;;;;;;20.65;12.70;;;;;;;7.70;100.00;101750.56;5113366;28;20082;-48
2024/02/18 06:40:58;;;;;;;23.13;13.30;;;;;;;7.92;100.00;101761.53;5113153;28;20104;-49
2024/02/18 06:43:27;;;;;;;23.00;13.68;;;;;;;8.00;100.00;101755.09;5113294;27;20044;-49
2024/02/18 06:45:56;;;;;;;22.80;12.38;;;;;;;8.06;100.00;101764.72;5112746;28;20048;-48
2024/02/18 06:48:25;;;;;;;22.02;13.30;;;;;;;8.06;100.00;101767.38;5112687;28;20438;-48
2024/02/18 06:50:54;;;;;;;21.75;12.27;;;;;;;8.20;100.00;101759.03;5113134;28;20044;-48
2024/02/18 06:53:22;;;;;;;22.70;13.70;;;;;;;8.29;100.00;101769.41;5113181;28;20052;-47
2024/02/18 06:55:51;;;;;;;24.35;13.70;;;;;;;8.57;98.93;101770.44;5113228;28;20116;-46
2024/02/18 06:58:19;;;;;;;21.73;13.02;;;;;;;8.55;98.22;101771.41;5113102;28;20050;-49
2024/02/18 07:00:47;;;;;;;21.75;13.13;;;;;;;8.68;96.82;101777.25;5113037;28;20138;-47
2024/02/18 07:03:16;;;;;;;18.08;11.65;;;;;;;8.77;95.64;101777.84;5113017;28;20052;-44
2024/02/18 07:05:46;;;;;;;19.52;11.88;;;;;;;8.83;94.07;101776.81;5112912;28;20105;-48
2024/02/18 07:08:14;;;;;;;19.50;11.93;;;;;;;8.84;94.34;101773.25;5112790;28;20139;-48
2024/02/18 07:10:42;;;;;;;19.00;11.73;;;;;;;8.64;95.13;101764.97;5112868;28;20055;-46
2024/02/18 07:13:11;;;;;;;19.20;11.40;;;;;;;8.42;94.63;101765.56;5112490;28;20048;-45
2024/02/18 07:15:39;;;;;;;16.20;10.18;;;;;;;8.46;95.37;101772.53;5112855;28;20511;-51
2024/02/18 07:18:08;;;;;;;16.10;10.77;;;;;;;8.42;96.18;101770.88;5112698;28;20096;-46
2024/02/18 07:20:36;;;;;;;18.35;11.02;;;;;;;8.52;96.74;101772.38;5112195;28;20051;-45
2024/02/18 07:23:06;;;;;;;18.30;11.05;;;;;;;8.45;97.52;101773.44;5112575;28;20394;-50
2024/02/18 07:25:34;;;;;;;17.10;11.18;;;;;;;8.66;96.23;101768.44;5112051;28;20044;-47
2024/02/18 07:28:03;;;;;;;18.25;10.82;;;;;;;8.67;95.13;101770.19;5112494;28;20051;-47
2024/02/18 07:30:31;;;;;;;16.52;10.40;;;;;;;8.74;93.79;101782.41;5112395;28;20047;-47
2024/02/18 07:33:01;;;;;;;16.00;10.55;;;;;;;8.80;92.91;101784.91;5112041;28;20051;-46
2024/02/18 07:35:30;;;;;;;17.63;11.23;;;;;;;8.99;93.02;101778.13;5112399;28;20048;-46
2024/02/18 07:37:58;;;;;;;16.05;10.40;;;;;;;8.92;91.42;101781.00;5112539;28;20056;-47
2024/02/18 07:40:28;;;;;;;17.67;10.73;;;;;;;9.11;90.75;101772.44;5112350;28;20122;-48
2024/02/18 07:42:56;;;;;;;15.18;9.85;;;;;;;9.27;89.64;101778.19;5112175;28;20051;-47
2024/02/18 07:45:24;;;;;;;19.40;10.55;;;;;;;9.31;89.06;101768.28;5111906;28;20093;-44
2024/02/18 07:47:52;;;;;;;14.30;9.45;;;;;;;9.16;87.63;101775.81;5111820;28;20524;-44
2024/02/18 07:50:21;;;;;;;31.67;17.60;;;;;;;9.64;86.08;101777.00;5111790;28;20044;-46
2024/02/18 07:52:49;;;;;;;25.52;14.82;;;;;;;9.85;85.63;101773.66;5111938;28;20454;-45
2024/02/18 07:55:18;;;;;;;15.60;9.88;;;;;;;9.62;84.18;101785.06;5112036;28;20048;-46
2024/02/18 07:57:47;;;;;;;15.02;9.90;;;;;;;9.50;84.25;101782.78;5112017;28;20043;-45
2024/02/18 08:00:16;;;;;;;15.27;9.68;;;;;;;9.69;84.83;101786.59;5112628;28;20058;-46
2024/02/18 08:02:44;;;;;;;14.10;8.73;;;;;;;9.39;83.47;101785.78;5112263;28;20493;-45
2024/02/18 08:05:13;;;;;;;15.57;9.90;;;;;;;9.59;82.87;101790.50;5111597;28;20438;-46
2024/02/18 08:07:41;;;;;;;14.35;9.02;;;;;;;9.73;81.71;101790.91;5112004;28;20048;-47
2024/02/18 08:10:10;;;;;;;13.15;8.70;;;;;;;9.81;79.79;101782.66;5111829;28;20043;-45
2024/02/18 08:12:39;;;;;;;21.15;12.90;;;;;;;9.87;81.12;101784.28;5111665;28;20081;-46
2024/02/18 08:15:09;;;;;;;33.35;18.63;;;;;;;10.08;81.59;101780.88;5111944;28;20060;-45
2024/02/18 08:17:38;;;;;;;16.70;10.45;;;;;;;9.99;82.35;101778.53;5111744;28;20062;-45
2024/02/18 08:20:07;;;;;;;17.70;10.52;;;;;;;10.09;81.01;101779.09;5111834;28;20496;-44
2024/02/18 08:22:35;;;;;;;16.58;9.65;;;;;;;9.94;78.88;101785.78;5112010;28;20051;-48
2024/02/18 08:25:06;;;;;;;16.60;10.20;;;;;;;9.91;80.38;101785.91;5111551;28;20134;-49
2024/02/18 08:27:34;;;;;;;14.73;8.73;;;;;;;10.02;76.87;101795.28;5111882;28;20043;-47
2024/02/18 08:30:03;;;;;;;13.07;7.78;;;;;;;9.85;76.83;101789.66;5111399;28;20051;-45
2024/02/18 08:32:32;;;;;;;11.27;7.78;;;;;;;9.89;76.05;101791.28;5110511;28;20059;-45
2024/02/18 08:35:02;;;;;;;11.05;7.28;;;;;;;10.04;74.79;101797.91;5111555;28;20086;-45
2024/02/18 08:37:30;;;;;;;10.25;6.90;;;;;;;10.02;74.40;101791.75;5111451;28;20043;-46
2024/02/18 08:39:59;;;;;;;11.95;7.03;;;;;;;9.90;73.85;101808.16;5111655;28;20079;-49
2024/02/18 08:42:27;;;;;;;9.90;6.97;;;;;;;9.87;73.42;101818.91;5111544;28;20079;-44
2024/02/18 08:44:56;;;;;;;12.52;7.22;;;;;;;9.79;73.58;101791.63;5111323;28;20434;-45
2024/02/18 08:47:24;;;;;;;11.68;7.13;;;;;;;9.82;73.52;101796.88;5111054;28;20439;-44
2024/02/18 08:49:54;;;;;;;10.75;6.60;;;;;;;9.88;72.96;101802.00;5111334;28;20127;-46
2024/02/18 08:52:23;;;;;;;11.80;6.28;;;;;;;10.07;73.18;101796.94;5111451;28;20444;-47
2024/02/18 08:54:51;;;;;;;9.93;6.53;;;;;;;9.97;71.80;101807.03;5111261;28;20044;-46
2024/02/18 08:57:19;;;;;;;10.20;6.00;;;;;;;10.16;71.81;101796.63;5111394;28;20079;-48
2024/02/18 08:59:48;;;;;;;9.02;5.90;;;;;;;9.96;71.63;101794.63;5112288;28;20104;-51
2024/02/18 09:02:16;;;;;;;12.00;6.45;;;;;;;10.06;71.49;101809.41;5107984;28;20400;-46
2024/02/18 09:04:45;;;;;;;10.32;6.28;;;;;;;10.12;72.00;101795.84;5111151;28;20055;-44
2024/02/18 09:07:15;;;;;;;12.48;7.13;;;;;;;10.22;71.56;101797.31;5110798;28;20135;-49
2024/02/18 09:09:43;;;;;;;11.18;6.93;;;;;;;10.16;71.13;101807.28;5110793;28;20047;-46
2024/02/18 09:12:12;;;;;;;11.00;6.85;;;;;;;10.04;71.65;101805.91;5110499;28;20043;-49
2024/02/18 09:14:40;;;;;;;13.32;6.93;;;;;;;10.07;72.20;101803.13;5110763;28;20399;-49
2024/02/18 09:17:08;;;;;;;10.35;5.97;;;;;;;9.91;71.75;101804.56;5110645;28;20511;-48
2024/02/18 09:55:21;;;;;;;11.38;7.20;;;;;;;9.33;82.28;101806.41;5106152;27;20404;-46
2024/02/18 09:57:50;;;;;;;13.43;8.32;;;;;;;9.64;82.52;101804.53;5106965;28;20044;-44
2024/02/18 10:00:20;;;;;;;18.90;10.40;;;;;;;9.90;83.05;101806.34;5107219;28;20044;-44
2024/02/18 10:02:48;;;;;;;15.35;9.63;;;;;;;9.72;85.22;101804.28;5108007;28;20044;-45
2024/02/18 10:05:17;;;;;;;15.13;9.98;;;;;;;9.85;85.96;101796.78;5107014;28;20054;-44
2024/02/18 10:07:45;;;;;;;16.20;9.93;;;;;;;9.99;86.37;101795.38;5101769;28;20067;-46
2024/02/18 10:10:13;;;;;;;13.80;9.80;;;;;;;9.81;88.24;101790.66;5107385;28;20052;-45
2024/02/18 10:12:43;;;;;;;16.77;10.85;;;;;;;9.75;90.57;101802.41;5106874;28;20044;-44
2024/02/18 10:15:11;;;;;;;18.88;10.75;;;;;;;9.65;92.03;101798.28;5106823;28;20508;-46
2024/02/18 10:17:40;;;;;;;17.85;9.98;;;;;;;9.66;93.37;101788.50;5106098;28;20408;-46
2024/02/18 10:20:09;;;;;;;16.02;10.85;;;;;;;9.87;93.46;101781.59;5106767;28;20154;-43
2024/02/18 10:22:37;;;;;;;17.13;10.82;;;;;;;9.99;92.95;101782.06;5106692;28;20048;-50
2024/02/18 10:25:07;;;;;;;15.70;10.48;;;;;;;10.02;92.65;101783.75;5106691;28;20051;-45
2024/02/18 10:27:37;;;;;;;18.75;10.65;;;;;;;10.21;92.44;101779.53;5105432;28;20398;-45
2024/02/18 10:30:08;;;;;;;17.33;10.73;;;;;;;9.97;92.54;101778.59;5106816;28;20040;-45
2024/02/18 10:32:36;;;;;;;17.45;10.50;;;;;;;9.96;93.54;101778.63;5107926;28;20101;-46
2024/02/18 10:35:05;;;;;;;16.60;10.95;;;;;;;9.95;95.23;101767.09;5106466;28;20131;-48
2024/02/18 10:37:37;;;;;;;15.52;10.18;;;;;;;10.03;94.45;101774.81;5106233;28;20454;-47
2024/02/18 10:40:14;;;;;;;17.88;11.00;;;;;;;10.08;94.06;101770.22;5106504;28;20044;-44
2024/02/18 10:42:44;;;;;;;16.85;10.70;;;;;;;10.09;93.79;101769.28;5106236;28;20054;-48
2024/02/18 10:45:14;;;;;;;16.30;10.48;;;;;;;9.98;94.86;101772.31;5106676;28;20142;-46
2024/02/18 10:47:50;;;;;;;14.93;10.02;;;;;;;10.29;93.80;101766.84;5105737;28;20048;-45
2024/02/18 10:50:18;;;;;;;16.98;10.43;;;;;;;10.68;92.40;101771.69;5106285;28;20518;-46
2024/02/18 10:52:55;;;;;;;15.90;10.63;;;;;;;10.58;91.13;101756.94;5106389;28;20127;-46
2024/02/18 10:55:30;;;;;;;14.30;10.25;;;;;;;10.83;90.59;101759.56;5105714;28;20048;-47
2024/02/18 10:58:05;;;;;;;15.27;10.40;;;;;;;10.74;89.70;101752.78;5104655;28;20044;-44
2024/02/18 11:00:39;;;;;;;15.30;10.68;;;;;;;10.62;91.12;101755.91;5105449;28;20122;-48
2024/02/18 11:03:15;;;;;;;16.48;10.85;;;;;;;10.67;90.60;101763.72;5105879;28;20048;-45
2024/02/18 11:05:44;;;;;;;17.05;10.50;;;;;;;10.62;92.13;101755.03;5097630;28;20058;-48
2024/02/18 11:08:13;;;;;;;16.02;10.32;;;;;;;10.54;92.07;101749.97;5091236;28;20446;-47
2024/02/18 11:10:44;;;;;;;16.35;10.48;;;;;;;10.73;91.17;101743.03;5092261;28;20398;-46
2024/02/18 11:13:17;;;;;;;16.55;10.88;;;;;;;10.69;91.53;101740.53;5092485;28;20092;-45
2024/02/18 11:15:48;;;;;;;16.02;10.68;;;;;;;10.96;89.85;101735.94;5092386;28;20485;-51
2024/02/18 11:18:16;;;;;;;15.13;10.32;;;;;;;10.99;87.44;101735.81;5091003;28;20374;-49
2024/02/18 11:20:46;;;;;;;15.70;10.43;;;;;;;11.06;88.10;101735.53;5092369;28;20531;-48
2024/02/18 11:23:14;;;;;;;16.08;11.07;;;;;;;10.65;90.82;101738.91;5088667;28;20397;-46
2024/02/18 11:25:44;;;;;;;14.95;10.40;;;;;;;10.87;91.00;101726.50;5083312;28;20052;-45
2024/02/18 11:28:13;;;;;;;15.10;10.20;;;;;;;10.97;89.98;101727.00;5090548;28;20043;-46
2024/02/18 11:30:42;;;;;;;16.58;9.85;;;;;;;11.11;89.76;101720.22;5084863;28;20045;-46
2024/02/18 11:33:17;;;;;;;14.65;9.90;;;;;;;11.28;88.00;101706.16;5092153;28;20048;-45
2024/02/18 11:35:45;;;;;;;15.05;10.25;;;;;;;11.46;85.59;101707.25;5088053;28;20136;-45
2024/02/18 11:38:14;;;;;;;14.88;9.77;;;;;;;11.43;86.12;101702.91;5090778;28;20048;-46
2024/02/18 11:40:46;;;;;;;14.70;10.27;;;;;;;11.37;85.10;101700.47;5091838;28;20044;-45
2024/02/18 11:43:15;;;;;;;15.75;9.90;;;;;;;11.30;85.02;101698.13;5091270;28;20105;-46
2024/02/18 11:45:47;;;;;;;16.10;10.73;;;;;;;11.15;88.12;101704.94;5091824;28;20714;-44
2024/02/18 11:48:18;;;;;;;15.95;11.13;;;;;;;11.03;89.99;101695.59;5090166;28;20092;-45
2024/02/18 11:50:47;;;;;;;16.83;11.48;;;;;;;10.88;91.16;101696.19;5091670;28;20040;-46
2024/02/18 11:53:15;;;;;;;16.83;12.00;;;;;;;11.08;90.11;101698.09;5091420;28;20506;-45
2024/02/18 11:55:44;;;;;;;16.75;11.52;;;;;;;11.03;90.41;101700.09;5091849;28;20491;-44